createdAt,value
2018-12-30T00:00:59.271Z,4.20
2018-12-30T00:03:26.902Z,4.20
2018-12-30T00:05:54.899Z,4.10
2018-12-30T00:08:22.708Z,4.10
2018-12-30T00:10:50.608Z,4.00
2018-12-30T00:13:18.226Z,4.10
2018-12-30T00:15:45.855Z,4.10
2018-12-30T00:18:13.470Z,4.10
2018-12-30T00:20:41.073Z,4.10
2018-12-30T00:23:08.709Z,4.10
2018-12-30T00:25:36.504Z,4.10
2018-12-30T00:28:04.143Z,4.10
2018-12-30T00:30:31.825Z,4.10
2018-12-30T00:32:59.454Z,4.10
2018-12-30T00:35:27.075Z,4.10
2018-12-30T00:37:54.748Z,4.10
2018-12-30T00:40:22.637Z,4.10
2018-12-30T00:42:50.275Z,4.10
2018-12-30T00:45:17.907Z,4.10
2018-12-30T00:47:45.518Z,4.10
2018-12-30T00:50:13.140Z,4.10
2018-12-30T00:52:40.769Z,4.20
2018-12-30T00:55:08.648Z,4.30
2018-12-30T00:57:36.271Z,4.30
2018-12-30T01:00:04.975Z,4.30
2018-12-30T01:02:32.596Z,4.30
2018-12-30T01:05:00.282Z,4.30
2018-12-30T01:07:27.900Z,4.20
2018-12-30T01:09:55.780Z,4.20
2018-12-30T01:12:23.419Z,4.20
2018-12-30T01:14:51.043Z,4.30
2018-12-30T01:17:18.678Z,4.20
2018-12-30T01:19:46.299Z,4.20
2018-12-30T01:22:13.985Z,4.20
2018-12-30T01:24:41.599Z,4.20
2018-12-30T01:27:09.213Z,4.20
2018-12-30T01:29:36.829Z,4.30
2018-12-30T01:32:04.433Z,4.30
2018-12-30T01:34:32.119Z,4.30
2018-12-30T01:36:59.754Z,4.30
2018-12-30T01:39:27.645Z,4.30
2018-12-30T01:41:55.345Z,4.30
2018-12-30T01:44:23.045Z,4.30
2018-12-30T01:46:50.660Z,4.30
2018-12-30T01:49:18.277Z,4.30
2018-12-30T01:51:45.890Z,4.40
2018-12-30T01:54:13.773Z,4.30
2018-12-30T01:56:41.424Z,4.40
2018-12-30T01:59:09.048Z,4.40
2018-12-30T02:01:36.672Z,4.40
2018-12-30T02:04:04.304Z,4.40
2018-12-30T02:06:31.932Z,4.40
2018-12-30T02:08:59.855Z,4.50
2018-12-30T02:11:27.483Z,4.50
2018-12-30T02:13:55.088Z,4.50
2018-12-30T02:16:22.700Z,4.50
2018-12-30T02:18:50.331Z,4.50
2018-12-30T02:21:17.971Z,4.50
2018-12-30T02:23:45.586Z,4.50
2018-12-30T02:26:13.211Z,4.60
2018-12-30T02:28:40.830Z,4.60
2018-12-30T02:31:08.432Z,4.60
2018-12-30T02:33:36.072Z,4.60
2018-12-30T02:36:04.053Z,4.50
2018-12-30T02:38:31.675Z,4.50
2018-12-30T02:40:59.280Z,4.50
2018-12-30T02:43:26.921Z,4.50
2018-12-30T02:45:54.597Z,4.50
2018-12-30T02:48:22.230Z,4.50
2018-12-30T02:50:49.932Z,4.40
2018-12-30T02:53:17.535Z,4.40
2018-12-30T02:55:45.178Z,4.40
2018-12-30T02:58:12.790Z,4.40
2018-12-30T03:00:40.405Z,4.30
2018-12-30T03:03:08.213Z,4.30
2018-12-30T03:05:35.828Z,4.30
2018-12-30T03:08:03.452Z,4.30
2018-12-30T03:10:31.094Z,4.30
2018-12-30T03:12:58.701Z,4.30
2018-12-30T03:15:26.583Z,4.30
2018-12-30T03:17:54.221Z,4.30
2018-12-30T03:20:21.841Z,4.30
2018-12-30T03:22:49.465Z,4.20
2018-12-30T03:25:17.069Z,4.20
2018-12-30T03:27:44.702Z,4.20
2018-12-30T03:30:12.318Z,4.20
2018-12-30T03:32:39.947Z,4.20
2018-12-30T03:35:07.543Z,4.10
2018-12-30T03:37:35.184Z,4.20
2018-12-30T03:40:03.025Z,4.20
2018-12-30T03:42:30.665Z,4.30
2018-12-30T03:44:58.264Z,4.30
2018-12-30T03:47:25.906Z,4.30
2018-12-30T03:49:53.505Z,4.30
2018-12-30T03:52:21.126Z,4.40
2018-12-30T03:54:48.740Z,4.30
2018-12-30T03:57:16.368Z,4.30
2018-12-30T03:59:43.984Z,4.40
2018-12-30T04:02:11.592Z,4.40
2018-12-30T04:04:39.201Z,4.40
2018-12-30T04:07:06.822Z,4.40
2018-12-30T04:09:34.429Z,4.40
2018-12-30T04:12:02.076Z,4.40
2018-12-30T04:14:29.708Z,4.40
2018-12-30T04:16:57.390Z,4.40
2018-12-30T04:19:25.018Z,4.40
2018-12-30T04:21:52.655Z,4.40
2018-12-30T04:24:20.268Z,4.40
2018-12-30T04:26:47.899Z,4.40
2018-12-30T04:29:15.513Z,4.40
2018-12-30T04:31:43.150Z,4.40
2018-12-30T04:34:10.771Z,4.40
2018-12-30T04:36:38.374Z,4.40
2018-12-30T04:39:06.092Z,4.40
2018-12-30T04:41:33.697Z,4.30
2018-12-30T04:44:01.309Z,4.30
2018-12-30T04:46:28.917Z,4.40
2018-12-30T04:48:56.563Z,4.40
2018-12-30T04:51:24.407Z,4.40
2018-12-30T04:53:52.040Z,4.40
2018-12-30T04:56:19.666Z,4.40
2018-12-30T04:58:47.282Z,4.40
2018-12-30T05:01:14.899Z,4.40
2018-12-30T05:03:42.509Z,4.40
2018-12-30T05:06:10.127Z,4.50
2018-12-30T05:08:37.770Z,4.50
2018-12-30T05:11:05.526Z,4.50
2018-12-30T05:13:33.297Z,4.40
2018-12-30T05:16:01.158Z,4.50
2018-12-30T05:18:28.787Z,4.50
2018-12-30T05:20:56.398Z,4.50
2018-12-30T05:23:24.013Z,4.40
2018-12-30T05:25:51.643Z,4.40
2018-12-30T05:28:19.255Z,4.40
2018-12-30T05:30:46.880Z,4.50
2018-12-30T05:33:14.518Z,4.50
2018-12-30T05:35:42.121Z,4.50
2018-12-30T05:38:09.739Z,4.50
2018-12-30T05:40:37.344Z,4.50
2018-12-30T05:43:04.964Z,4.50
2018-12-30T05:45:32.581Z,4.50
2018-12-30T05:48:00.202Z,4.50
2018-12-30T05:50:27.814Z,4.40
2018-12-30T05:52:55.425Z,4.40
2018-12-30T05:55:23.040Z,4.40
2018-12-30T05:57:50.656Z,4.50
2018-12-30T06:00:18.268Z,4.50
2018-12-30T06:02:45.893Z,4.50
2018-12-30T06:05:13.501Z,4.40
2018-12-30T06:07:41.116Z,4.40
2018-12-30T06:10:08.743Z,4.40
2018-12-30T06:12:36.352Z,4.40
2018-12-30T06:15:04.732Z,4.40
2018-12-30T06:17:32.349Z,4.40
2018-12-30T06:19:59.979Z,4.40
2018-12-30T06:22:27.591Z,4.40
2018-12-30T06:24:55.211Z,4.40
2018-12-30T06:27:22.835Z,4.40
2018-12-30T06:29:50.450Z,4.40
2018-12-30T06:32:18.077Z,4.40
2018-12-30T06:34:45.687Z,4.40
2018-12-30T06:37:13.313Z,4.50
2018-12-30T06:39:40.959Z,4.50
2018-12-30T06:42:08.564Z,4.50
2018-12-30T06:44:36.188Z,4.40
2018-12-30T06:47:03.822Z,4.40
2018-12-30T06:49:31.459Z,4.40
2018-12-30T06:51:59.060Z,4.40
2018-12-30T06:54:26.697Z,4.40
2018-12-30T06:56:54.330Z,4.40
2018-12-30T06:59:21.945Z,4.40
2018-12-30T07:01:49.569Z,4.40
2018-12-30T07:04:17.185Z,4.40
2018-12-30T07:06:44.817Z,4.40
2018-12-30T07:09:12.507Z,4.40
2018-12-30T07:11:40.108Z,4.40
2018-12-30T07:14:08.677Z,4.40
2018-12-30T07:16:36.321Z,4.40
2018-12-30T07:19:03.966Z,4.30
2018-12-30T07:21:31.585Z,4.30
2018-12-30T07:23:59.220Z,4.40
2018-12-30T07:26:26.847Z,4.40
2018-12-30T07:28:54.464Z,4.40
2018-12-30T07:31:22.073Z,4.40
2018-12-30T07:33:49.689Z,4.40
2018-12-30T07:36:17.313Z,4.40
2018-12-30T07:38:44.955Z,4.30
2018-12-30T07:41:12.565Z,4.40
2018-12-30T07:43:40.188Z,4.30
2018-12-30T07:46:07.801Z,4.30
2018-12-30T07:48:35.439Z,4.30
2018-12-30T07:51:03.052Z,4.30
2018-12-30T07:53:30.687Z,4.30
2018-12-30T07:55:58.310Z,4.30
2018-12-30T07:58:25.923Z,4.30
2018-12-30T08:00:53.541Z,4.40
2018-12-30T08:03:21.161Z,4.40
2018-12-30T08:05:48.779Z,4.40
2018-12-30T08:08:16.405Z,4.50
2018-12-30T08:10:44.054Z,4.40
2018-12-30T08:13:11.728Z,4.40
2018-12-30T08:15:39.357Z,4.40
2018-12-30T08:18:06.957Z,4.40
2018-12-30T08:20:34.576Z,4.50
2018-12-30T08:23:02.188Z,4.50
2018-12-30T08:25:29.804Z,4.50
2018-12-30T08:27:57.419Z,4.50
2018-12-30T08:30:25.032Z,4.60
2018-12-30T08:32:52.636Z,4.60
2018-12-30T08:35:20.271Z,4.60
2018-12-30T08:37:47.895Z,4.60
2018-12-30T08:40:15.539Z,4.60
2018-12-30T08:42:43.147Z,4.70
2018-12-30T08:45:10.765Z,4.80
2018-12-30T08:47:38.395Z,4.90
2018-12-30T08:50:06.595Z,4.90
2018-12-30T08:52:34.212Z,5.00
2018-12-30T08:55:01.848Z,5.10
2018-12-30T08:57:29.464Z,5.10
2018-12-30T08:59:57.090Z,5.20
2018-12-30T09:02:24.715Z,5.20
2018-12-30T09:04:52.396Z,5.30
2018-12-30T09:07:20.010Z,5.30
2018-12-30T09:09:47.714Z,5.30
2018-12-30T09:12:15.325Z,5.40
2018-12-30T09:14:42.945Z,5.40
2018-12-30T09:17:10.563Z,5.30
2018-12-30T09:19:38.181Z,5.30
2018-12-30T09:22:05.799Z,5.20
2018-12-30T09:24:33.417Z,5.20
2018-12-30T09:27:01.029Z,5.20
2018-12-30T09:29:29.875Z,5.20
2018-12-30T09:31:57.532Z,5.30
2018-12-30T09:34:25.225Z,5.20
2018-12-30T09:36:53.362Z,5.30
2018-12-30T09:39:21.065Z,5.30
2018-12-30T09:41:48.697Z,5.40
2018-12-30T09:44:16.311Z,5.50
2018-12-30T09:46:44.052Z,5.60
2018-12-30T09:49:11.734Z,5.60
2018-12-30T09:51:39.326Z,5.60
2018-12-30T09:54:06.943Z,5.60
2018-12-30T09:56:34.556Z,5.50
2018-12-30T09:59:02.161Z,5.50
2018-12-30T10:01:29.785Z,5.50
2018-12-30T10:03:57.392Z,5.60
2018-12-30T10:06:25.014Z,5.60
2018-12-30T10:08:52.627Z,5.60
2018-12-30T10:11:20.259Z,5.70
2018-12-30T10:13:47.895Z,5.60
2018-12-30T10:16:15.498Z,5.70
2018-12-30T10:18:43.909Z,5.70
2018-12-30T10:21:13.431Z,5.70
2018-12-30T10:23:44.102Z,5.70
2018-12-30T10:26:11.732Z,5.70
2018-12-30T10:28:39.360Z,5.70
2018-12-30T10:31:06.965Z,5.70
2018-12-30T10:33:34.587Z,5.70
2018-12-30T10:36:02.204Z,5.70
2018-12-30T10:38:29.827Z,5.70
2018-12-30T10:40:57.441Z,5.70
2018-12-30T10:43:25.050Z,5.70
2018-12-30T10:45:52.676Z,5.80
2018-12-30T10:48:20.322Z,5.80
2018-12-30T10:50:47.979Z,5.80
2018-12-30T10:53:15.580Z,5.80
2018-12-30T10:55:43.208Z,5.80
2018-12-30T10:58:10.835Z,5.80
2018-12-30T11:00:38.444Z,5.80
2018-12-30T11:03:06.072Z,5.80
2018-12-30T11:05:33.725Z,5.80
2018-12-30T11:08:01.321Z,5.80
2018-12-30T11:10:28.954Z,5.80
2018-12-30T11:12:56.560Z,5.70
2018-12-30T11:15:24.177Z,5.80
2018-12-30T11:17:51.809Z,5.70
2018-12-30T11:20:19.439Z,5.70
2018-12-30T11:22:47.049Z,5.70
2018-12-30T11:25:15.505Z,5.70
2018-12-30T11:27:43.177Z,5.60
2018-12-30T11:30:10.895Z,5.60
2018-12-30T11:32:38.525Z,5.60
2018-12-30T11:35:06.137Z,5.60
2018-12-30T11:37:33.758Z,5.70
2018-12-30T11:40:01.369Z,5.70
2018-12-30T11:42:28.985Z,5.70
2018-12-30T11:44:56.611Z,5.60
2018-12-30T11:47:24.228Z,5.60
2018-12-30T11:49:51.846Z,5.50
2018-12-30T11:52:19.467Z,5.70
2018-12-30T11:54:47.076Z,5.70
2018-12-30T11:57:14.692Z,5.70
2018-12-30T11:59:42.305Z,5.70
2018-12-30T12:02:09.929Z,5.60
2018-12-30T12:04:37.529Z,5.60
2018-12-30T12:07:05.158Z,5.60
2018-12-30T12:09:32.780Z,5.70
2018-12-30T12:12:00.392Z,5.70
2018-12-30T12:14:28.017Z,5.70
2018-12-30T12:16:55.633Z,5.60
2018-12-30T12:19:23.258Z,5.60
2018-12-30T12:21:50.879Z,5.60
2018-12-30T12:24:24.263Z,5.60
2018-12-30T12:26:47.838Z,5.60
2018-12-30T12:29:15.456Z,5.60
2018-12-30T12:31:43.073Z,5.60
2018-12-30T12:34:10.681Z,5.60
2018-12-30T12:36:38.324Z,5.50
2018-12-30T12:39:06.108Z,5.50
2018-12-30T12:41:33.726Z,5.50
2018-12-30T12:44:01.333Z,5.50
2018-12-30T12:46:28.955Z,5.60
2018-12-30T12:48:56.581Z,5.50
2018-12-30T12:51:24.200Z,5.50
2018-12-30T12:53:51.831Z,5.50
2018-12-30T12:56:19.432Z,5.50
2018-12-30T12:58:47.053Z,5.40
2018-12-30T13:01:14.660Z,5.40
2018-12-30T13:03:42.272Z,5.40
2018-12-30T13:06:09.902Z,5.40
2018-12-30T13:08:37.529Z,5.40
2018-12-30T13:11:05.146Z,5.40
2018-12-30T13:13:32.758Z,5.40
2018-12-30T13:16:03.563Z,5.30
2018-12-30T13:18:30.187Z,5.30
2018-12-30T13:20:57.793Z,5.30
2018-12-30T13:23:25.417Z,5.20
2018-12-30T13:25:53.026Z,5.20
2018-12-30T13:28:20.636Z,5.20
2018-12-30T13:30:48.251Z,5.20
2018-12-30T13:33:15.869Z,5.20
2018-12-30T13:35:44.053Z,5.20
2018-12-30T13:38:11.681Z,5.20
2018-12-30T13:40:39.284Z,5.20
2018-12-30T13:43:06.921Z,5.20
2018-12-30T13:45:34.539Z,5.20
2018-12-30T13:48:02.153Z,5.20
2018-12-30T13:50:29.757Z,5.20
2018-12-30T13:52:57.387Z,5.20
2018-12-30T13:55:25.011Z,5.20
2018-12-30T13:57:52.626Z,5.20
2018-12-30T14:00:20.244Z,5.20
2018-12-30T14:02:47.865Z,5.30
2018-12-30T14:05:15.483Z,5.30
2018-12-30T14:07:43.100Z,5.30
2018-12-30T14:10:10.707Z,5.40
2018-12-30T14:12:38.331Z,5.40
2018-12-30T14:15:06.322Z,5.40
2018-12-30T14:17:33.923Z,5.40
2018-12-30T14:20:01.579Z,5.40
2018-12-30T14:22:29.177Z,5.40
2018-12-30T14:24:56.790Z,5.40
2018-12-30T14:27:24.419Z,5.40
2018-12-30T14:29:52.045Z,5.40
2018-12-30T14:32:19.683Z,5.40
2018-12-30T14:34:47.321Z,5.40
2018-12-30T14:37:14.920Z,5.40
2018-12-30T14:39:42.563Z,5.40
2018-12-30T14:42:10.153Z,5.40
2018-12-30T14:44:37.784Z,5.30
2018-12-30T14:47:05.396Z,5.30
2018-12-30T14:49:33.031Z,5.30
2018-12-30T14:52:00.640Z,5.20
2018-12-30T14:54:28.266Z,5.20
2018-12-30T14:56:55.880Z,5.20
2018-12-30T14:59:23.499Z,5.20
2018-12-30T15:01:51.124Z,5.20
2018-12-30T15:04:18.745Z,5.10
2018-12-30T15:06:46.337Z,5.10
2018-12-30T15:09:13.979Z,5.10
2018-12-30T15:11:41.599Z,5.10
2018-12-30T15:14:09.227Z,5.00
2018-12-30T15:16:36.839Z,5.10
2018-12-30T15:19:04.467Z,5.10
2018-12-30T15:21:32.094Z,5.10
2018-12-30T15:23:59.697Z,5.00
2018-12-30T15:26:27.329Z,4.90
2018-12-30T15:28:54.963Z,4.90
2018-12-30T15:31:22.594Z,4.90
2018-12-30T15:33:50.202Z,4.80
2018-12-30T15:36:17.817Z,4.80
2018-12-30T15:38:45.424Z,4.80
2018-12-30T15:41:13.265Z,4.80
2018-12-30T15:43:40.876Z,4.80
2018-12-30T15:46:08.514Z,4.70
2018-12-30T15:48:36.120Z,4.70
2018-12-30T15:51:03.761Z,4.60
2018-12-30T15:53:31.367Z,4.60
2018-12-30T15:55:58.972Z,4.60
2018-12-30T15:58:26.593Z,4.70
2018-12-30T16:00:54.206Z,4.70
2018-12-30T16:03:21.836Z,4.60
2018-12-30T16:05:49.468Z,4.60
2018-12-30T16:08:17.294Z,4.60
2018-12-30T16:10:44.921Z,4.60
2018-12-30T16:13:12.537Z,4.60
2018-12-30T16:15:40.156Z,4.60
2018-12-30T16:18:07.769Z,4.70
2018-12-30T16:20:35.393Z,4.60
2018-12-30T16:23:03.001Z,4.70
2018-12-30T16:25:30.631Z,4.70
2018-12-30T16:27:58.315Z,4.70
2018-12-30T16:30:25.944Z,4.70
2018-12-30T16:32:53.563Z,4.70
2018-12-30T16:35:21.194Z,4.70
2018-12-30T16:37:49.493Z,4.60
2018-12-30T16:40:17.201Z,4.60
2018-12-30T16:42:44.834Z,4.60
2018-12-30T16:45:12.461Z,4.50
2018-12-30T16:47:42.059Z,4.50
2018-12-30T16:50:09.428Z,4.50
2018-12-30T16:52:37.066Z,4.50
2018-12-30T16:55:04.673Z,4.50
2018-12-30T16:57:32.296Z,4.50
2018-12-30T16:59:59.898Z,4.50
2018-12-30T17:02:27.513Z,4.50
2018-12-30T17:04:55.116Z,4.50
2018-12-30T17:07:22.757Z,4.50
2018-12-30T17:09:50.367Z,4.50
2018-12-30T17:12:17.984Z,4.50
2018-12-30T17:14:45.607Z,4.40
2018-12-30T17:17:13.235Z,4.40
2018-12-30T17:19:40.863Z,4.40
2018-12-30T17:22:08.486Z,4.40
2018-12-30T17:24:36.101Z,4.40
2018-12-30T17:27:03.715Z,4.40
2018-12-30T17:29:31.333Z,4.40
2018-12-30T17:31:58.952Z,4.40
2018-12-30T17:34:26.615Z,4.40
2018-12-30T17:36:54.288Z,4.50
2018-12-30T17:39:21.923Z,4.50
2018-12-30T17:41:49.532Z,4.40
2018-12-30T17:44:17.471Z,4.40
2018-12-30T17:46:45.142Z,4.40
2018-12-30T17:49:12.784Z,4.40
2018-12-30T17:51:40.386Z,4.50
2018-12-30T17:54:15.025Z,4.50
2018-12-30T17:56:37.341Z,4.50
2018-12-30T17:59:04.961Z,4.50
2018-12-30T18:01:32.580Z,4.50
2018-12-30T18:04:00.215Z,4.50
2018-12-30T18:06:27.823Z,4.50
2018-12-30T18:08:55.441Z,4.50
2018-12-30T18:11:23.058Z,4.50
2018-12-30T18:13:50.677Z,4.60
2018-12-30T18:16:18.290Z,4.60
2018-12-30T18:18:45.921Z,4.60
2018-12-30T18:21:13.528Z,4.60
2018-12-30T18:23:41.148Z,4.60
2018-12-30T18:26:08.759Z,4.60
2018-12-30T18:28:36.383Z,4.70
2018-12-30T18:31:04.005Z,4.70
2018-12-30T18:33:31.613Z,4.70
2018-12-30T18:35:59.245Z,4.70
2018-12-30T18:38:26.880Z,4.70
2018-12-30T18:40:54.543Z,4.70
2018-12-30T18:43:22.170Z,4.70
2018-12-30T18:45:49.772Z,4.70
2018-12-30T18:48:17.413Z,4.70
2018-12-30T18:50:45.033Z,4.70
2018-12-30T18:53:12.660Z,4.70
2018-12-30T18:55:40.286Z,4.70
2018-12-30T18:58:07.931Z,4.70
2018-12-30T19:00:35.572Z,4.70
2018-12-30T19:03:03.173Z,4.70
2018-12-30T19:05:30.786Z,4.70
2018-12-30T19:07:58.419Z,4.70
2018-12-30T19:10:26.024Z,4.70
2018-12-30T19:12:53.634Z,4.70
2018-12-30T19:15:21.258Z,4.70
2018-12-30T19:17:48.876Z,4.70
2018-12-30T19:20:16.501Z,4.70
2018-12-30T19:22:44.116Z,4.70
2018-12-30T19:25:11.738Z,4.70
2018-12-30T19:27:39.360Z,4.70
2018-12-30T19:30:07.767Z,4.80
2018-12-30T19:32:35.397Z,4.80
2018-12-30T19:35:03.172Z,4.80
2018-12-30T19:37:30.787Z,4.80
2018-12-30T19:39:58.404Z,4.80
2018-12-30T19:42:26.009Z,4.80
2018-12-30T19:44:53.633Z,4.80
2018-12-30T19:47:21.275Z,4.80
2018-12-30T19:49:48.916Z,4.80
2018-12-30T19:52:16.516Z,4.80
2018-12-30T19:54:44.138Z,4.80
2018-12-30T19:57:11.749Z,4.80
2018-12-30T19:59:39.371Z,4.80
2018-12-30T20:02:06.982Z,4.80
2018-12-30T20:04:40.642Z,4.80
2018-12-30T20:07:03.988Z,4.70
2018-12-30T20:09:31.624Z,4.70
2018-12-30T20:11:59.300Z,4.70
2018-12-30T20:14:26.927Z,4.70
2018-12-30T20:16:54.536Z,4.70
2018-12-30T20:19:22.168Z,4.60
2018-12-30T20:21:49.783Z,4.60
2018-12-30T20:24:17.412Z,4.60
2018-12-30T20:26:45.024Z,4.60
2018-12-30T20:29:12.641Z,4.60
2018-12-30T20:31:40.253Z,4.50
2018-12-30T20:34:07.900Z,4.50
2018-12-30T20:36:35.513Z,4.50
2018-12-30T20:39:04.405Z,4.50
2018-12-30T20:41:32.048Z,4.50
2018-12-30T20:43:59.667Z,4.40
2018-12-30T20:46:27.305Z,4.50
2018-12-30T20:48:54.908Z,4.40
2018-12-30T20:51:22.533Z,4.40
2018-12-30T20:53:50.148Z,4.30
2018-12-30T20:56:17.757Z,4.30
2018-12-30T20:58:45.368Z,4.30
2018-12-30T21:01:12.989Z,4.30
2018-12-30T21:03:40.599Z,4.30
2018-12-30T21:06:08.265Z,4.20
2018-12-30T21:08:35.869Z,4.20
2018-12-30T21:11:03.485Z,4.20
2018-12-30T21:13:31.127Z,4.20
2018-12-30T21:15:58.843Z,4.20
2018-12-30T21:18:26.443Z,4.20
2018-12-30T21:20:54.075Z,4.10
2018-12-30T21:23:21.681Z,4.10
2018-12-30T21:25:49.321Z,4.10
2018-12-30T21:28:16.935Z,4.10
2018-12-30T21:30:44.558Z,4.10
2018-12-30T21:33:12.173Z,4.10
2018-12-30T21:35:39.789Z,4.20
2018-12-30T21:38:07.409Z,4.20
2018-12-30T21:40:35.035Z,4.20
2018-12-30T21:43:02.645Z,4.20
2018-12-30T21:45:30.269Z,4.20
2018-12-30T21:47:57.888Z,4.20
2018-12-30T21:50:25.497Z,4.20
2018-12-30T21:52:53.113Z,4.10
2018-12-30T21:55:20.740Z,4.20
2018-12-30T21:57:48.352Z,4.20
2018-12-30T22:00:15.996Z,4.20
2018-12-30T22:02:43.605Z,4.20
2018-12-30T22:05:14.064Z,4.10
2018-12-30T22:07:41.625Z,4.10
2018-12-30T22:10:16.951Z,4.10
2018-12-30T22:12:39.206Z,4.10
2018-12-30T22:15:07.042Z,4.10
2018-12-30T22:17:34.671Z,4.10
2018-12-30T22:20:02.307Z,4.10
2018-12-30T22:22:29.925Z,4.10
2018-12-30T22:24:57.537Z,4.10
2018-12-30T22:27:25.161Z,4.10
2018-12-30T22:29:52.760Z,4.10
2018-12-30T22:32:20.385Z,4.10
2018-12-30T22:34:48.028Z,4.10
2018-12-30T22:37:15.624Z,4.10
2018-12-30T22:39:43.241Z,4.10
2018-12-30T22:42:10.860Z,4.20
2018-12-30T22:44:38.465Z,4.20
2018-12-30T22:47:06.109Z,4.20
2018-12-30T22:49:33.728Z,4.20
2018-12-30T22:52:01.332Z,4.20
2018-12-30T22:54:28.944Z,4.20
2018-12-30T22:56:56.571Z,4.20
2018-12-30T22:59:24.190Z,4.20
2018-12-30T23:01:52.081Z,4.20
2018-12-30T23:04:19.684Z,4.30
2018-12-30T23:06:47.305Z,4.20
2018-12-30T23:09:14.927Z,4.20
2018-12-30T23:11:42.560Z,4.30
2018-12-30T23:14:10.152Z,4.30
2018-12-30T23:16:37.760Z,4.30
2018-12-30T23:19:05.381Z,4.30
2018-12-30T23:21:32.989Z,4.30
2018-12-30T23:24:00.613Z,4.30
2018-12-30T23:26:28.234Z,4.30
2018-12-30T23:28:55.849Z,4.30
2018-12-30T23:31:23.476Z,4.30
2018-12-30T23:33:51.107Z,4.30
2018-12-30T23:36:18.712Z,4.30
2018-12-30T23:38:46.333Z,4.30
2018-12-30T23:41:13.957Z,4.30
2018-12-30T23:43:41.571Z,4.30
2018-12-30T23:46:09.180Z,4.40
2018-12-30T23:48:36.812Z,4.40
2018-12-30T23:51:05.001Z,4.40
2018-12-30T23:53:32.606Z,4.40
2018-12-30T23:56:00.219Z,4.50
2018-12-30T23:58:27.840Z,4.40
